Time;durP1;ratioP1;P1;durP2;ratioP2;P2;SDS_P1;SDS_P2;PMS_P1;PMS_P2;Temp;Humidity;BMP_temperature;BMP_pressure;BME280_temperature;BME280_humidity;BME280_pressure;Samples;Min_cycle;Max_cycle;Signal;HPM_P1;HPM_P2
2023/10/19 00:00:40;;;;;;;18.27;11.30;;;7.70;99.90;;;;;;4992591;28;20702;-48
2023/10/19 00:03:06;;;;;;;21.23;12.30;;;7.70;99.90;;;;;;4992264;28;20034;-50
2023/10/19 00:05:33;;;;;;;16.80;11.65;;;7.70;99.90;;;;;;4992010;28;20392;-48
2023/10/19 00:08:00;;;;;;;21.85;12.60;;;7.80;99.90;;;;;;4991405;28;20018;-48
2023/10/19 00:10:30;;;;;;;21.08;13.23;;;7.80;99.90;;;;;;4992218;28;20022;-49
2023/10/19 00:13:03;;;;;;;18.43;13.13;;;7.70;99.90;;;;;;4992211;28;20479;-49
2023/10/19 00:15:32;;;;;;;19.92;13.48;;;7.70;99.90;;;;;;4991821;28;20061;-49
2023/10/19 00:18:05;;;;;;;21.00;13.00;;;7.70;99.90;;;;;;4992015;28;20407;-48
2023/10/19 00:23:13;;;;;;;21.42;12.88;;;7.80;99.90;;;;;;4991980;28;20034;-48
2023/10/19 00:25:41;;;;;;;19.65;13.55;;;7.80;99.90;;;;;;4991455;28;20034;-47
2023/10/19 00:28:07;;;;;;;20.55;13.48;;;7.80;99.90;;;;;;4991689;28;20263;-50
2023/10/19 00:30:35;;;;;;;23.05;13.27;;;7.80;99.90;;;;;;4991361;28;20030;-47
2023/10/19 00:33:03;;;;;;;19.35;12.63;;;7.80;99.90;;;;;;4991479;28;20034;-50
2023/10/19 00:35:41;;;;;;;22.25;13.93;;;7.80;99.90;;;;;;4991294;28;20110;-50
2023/10/19 00:43:44;;;;;;;25.38;15.00;;;7.70;99.90;;;;;;4991507;28;20026;-50
2023/10/19 00:46:20;;;;;;;21.88;13.52;;;7.70;99.90;;;;;;4990801;28;20104;-47
2023/10/19 00:48:54;;;;;;;23.60;15.48;;;7.70;99.90;;;;;;4991326;28;20029;-50
2023/10/19 00:54:10;;;;;;;23.30;15.45;;;7.70;99.90;;;;;;4991381;28;20480;-49
2023/10/19 00:56:37;;;;;;;27.13;14.40;;;7.60;99.90;;;;;;4990874;28;20085;-49
2023/10/19 00:59:14;;;;;;;22.23;13.75;;;7.60;99.90;;;;;;4991087;28;20034;-48
2023/10/19 01:01:44;;;;;;;22.33;14.32;;;7.60;99.90;;;;;;4991024;28;20045;-48
2023/10/19 01:04:14;;;;;;;22.20;14.65;;;7.60;99.90;;;;;;4990593;28;20089;-50
2023/10/19 01:06:59;;;;;;;26.63;15.05;;;7.60;99.90;;;;;;4990902;28;20520;-52
2023/10/19 01:09:27;;;;;;;26.17;16.25;;;7.60;99.90;;;;;;4990884;28;20018;-48
2023/10/19 01:11:53;;;;;;;24.35;15.13;;;7.60;99.90;;;;;;4973331;28;20375;-48
2023/10/19 01:14:27;;;;;;;29.42;15.35;;;7.50;99.90;;;;;;4990504;28;20054;-48
2023/10/19 01:16:56;;;;;;;22.73;14.70;;;7.50;99.90;;;;;;4991110;28;20037;-49
2023/10/19 01:19:23;;;;;;;25.45;14.82;;;7.50;99.90;;;;;;4973102;28;20533;-49
2023/10/19 01:21:53;;;;;;;26.42;15.75;;;7.50;99.90;;;;;;4990619;28;20030;-49
2023/10/19 01:24:24;;;;;;;26.13;15.85;;;7.50;99.90;;;;;;4990142;28;20034;-49
2023/10/19 01:26:50;;;;;;;24.95;15.60;;;7.50;99.90;;;;;;4990500;28;20408;-51
2023/10/19 01:29:17;;;;;;;21.52;13.93;;;7.50;99.90;;;;;;4990555;28;20023;-50
2023/10/19 01:31:55;;;;;;;24.23;16.10;;;7.50;99.90;;;;;;4990499;28;20616;-48
2023/10/19 01:34:21;;;;;;;22.05;15.55;;;7.50;99.90;;;;;;4990092;28;20061;-48
2023/10/19 01:36:50;;;;;;;27.40;17.42;;;7.50;99.90;;;;;;4972635;28;20392;-50
2023/10/19 01:39:18;;;;;;;24.25;16.27;;;7.50;99.90;;;;;;4990098;28;20033;-48
2023/10/19 01:41:44;;;;;;;33.22;16.38;;;7.50;99.90;;;;;;4990320;28;20504;-47
2023/10/19 01:44:13;;;;;;;23.55;16.85;;;7.50;99.90;;;;;;4953396;28;20117;-50
2023/10/19 01:46:39;;;;;;;24.35;15.27;;;7.40;99.90;;;;;;4990216;28;20471;-50
2023/10/19 01:49:05;;;;;;;28.27;16.20;;;7.50;99.90;;;;;;4990133;28;20034;-48
2023/10/19 01:51:43;;;;;;;24.63;15.80;;;7.50;99.90;;;;;;4990020;28;20033;-48
2023/10/19 01:54:09;;;;;;;24.13;15.43;;;7.50;99.90;;;;;;4990168;28;20029;-48
2023/10/19 01:56:38;;;;;;;26.90;16.73;;;7.50;99.90;;;;;;4985678;28;20081;-47
2023/10/19 01:59:04;;;;;;;29.20;16.98;;;7.50;99.90;;;;;;4972663;28;20468;-47
2023/10/19 02:01:32;;;;;;;25.77;15.55;;;7.50;99.90;;;;;;4982931;28;20400;-48
2023/10/19 02:04:03;;;;;;;24.90;15.68;;;7.50;99.90;;;;;;4982356;28;20426;-49
2023/10/19 02:09:09;;;;;;;23.63;16.92;;;7.60;99.90;;;;;;4984299;28;20054;-47
2023/10/19 02:11:37;;;;;;;25.92;15.95;;;7.50;99.90;;;;;;4981827;28;20031;-48
2023/10/19 02:14:04;;;;;;;30.50;16.80;;;7.50;99.90;;;;;;4989798;28;20038;-48
2023/10/19 02:16:31;;;;;;;24.00;15.13;;;7.50;99.90;;;;;;4989189;28;20113;-47
2023/10/19 02:18:56;;;;;;;34.72;17.77;;;7.50;99.90;;;;;;4989773;28;20472;-48
2023/10/19 02:21:22;;;;;;;28.52;18.00;;;7.60;99.90;;;;;;4989716;28;20293;-50
2023/10/19 02:23:50;;;;;;;23.40;15.75;;;7.50;99.90;;;;;;4990022;28;20162;-47
2023/10/19 02:26:19;;;;;;;28.27;17.20;;;7.50;99.90;;;;;;4972032;28;20022;-51
2023/10/19 02:28:50;;;;;;;27.40;16.70;;;7.50;99.90;;;;;;4990137;28;20429;-47
2023/10/19 02:31:20;;;;;;;24.10;16.40;;;7.50;99.90;;;;;;4990345;28;20028;-47
2023/10/19 02:33:46;;;;;;;32.50;18.33;;;7.40;99.90;;;;;;4993793;28;20026;-47
2023/10/19 02:36:15;;;;;;;30.85;16.85;;;7.40;99.90;;;;;;4993283;28;20035;-47
2023/10/19 02:38:48;;;;;;;27.00;16.50;;;7.40;99.90;;;;;;4993782;28;20089;-50
2023/10/19 02:41:15;;;;;;;29.55;18.08;;;7.40;99.90;;;;;;4993704;28;20098;-48
2023/10/19 02:43:41;;;;;;;28.90;17.63;;;7.40;99.90;;;;;;4993277;28;20488;-50
2023/10/19 02:46:07;;;;;;;27.05;18.17;;;7.30;99.90;;;;;;4993044;28;20026;-47
2023/10/19 02:48:33;;;;;;;27.83;17.90;;;7.30;99.90;;;;;;4993368;28;20101;-48
2023/10/19 02:51:05;;;;;;;30.08;18.38;;;7.40;99.90;;;;;;4993414;28;20102;-49
2023/10/19 02:53:32;;;;;;;31.08;20.48;;;7.30;99.90;;;;;;4993387;28;20022;-47
2023/10/19 02:56:01;;;;;;;28.83;17.55;;;7.30;99.90;;;;;;4993343;28;20027;-50
2023/10/19 02:58:28;;;;;;;31.30;19.42;;;7.30;99.90;;;;;;4993059;28;20034;-48
2023/10/19 03:00:54;;;;;;;32.65;19.60;;;7.30;99.90;;;;;;4975610;28;20391;-49
2023/10/19 03:03:20;;;;;;;30.42;19.10;;;7.20;99.90;;;;;;4993054;28;20027;-49
2023/10/19 03:05:46;;;;;;;32.70;19.77;;;7.20;99.90;;;;;;4992768;28;20145;-50
2023/10/19 03:08:15;;;;;;;32.38;20.35;;;7.20;99.90;;;;;;4975551;28;20034;-48
2023/10/19 03:10:43;;;;;;;30.17;18.15;;;7.20;99.90;;;;;;4993189;28;20050;-47
2023/10/19 03:13:09;;;;;;;37.30;21.05;;;7.20;99.90;;;;;;4993009;28;20030;-49
2023/10/19 03:15:35;;;;;;;31.05;19.52;;;7.20;99.90;;;;;;4992950;28;20038;-50
2023/10/19 03:18:02;;;;;;;30.65;19.42;;;7.20;99.90;;;;;;4991794;28;20033;-49
2023/10/19 03:20:29;;;;;;;34.50;21.27;;;7.10;99.90;;;;;;4993105;28;20073;-48
2023/10/19 03:22:59;;;;;;;35.35;20.27;;;7.10;99.90;;;;;;4992893;28;20022;-49
2023/10/19 03:28:11;;;;;;;36.97;20.98;;;7.10;99.90;;;;;;4993592;28;20522;-48
2023/10/19 03:30:38;;;;;;;36.78;22.42;;;7.10;99.90;;;;;;4992986;28;20026;-50
2023/10/19 03:33:05;;;;;;;36.28;21.27;;;7.10;99.90;;;;;;4992999;28;20035;-49
2023/10/19 03:35:30;;;;;;;40.30;22.08;;;7.10;99.90;;;;;;4992619;28;20034;-51
2023/10/19 03:38:00;;;;;;;33.10;21.00;;;7.00;99.90;;;;;;4992939;28;20503;-50
2023/10/19 03:40:31;;;;;;;35.50;21.98;;;7.00;99.90;;;;;;4992605;28;20454;-50
2023/10/19 03:42:56;;;;;;;40.00;22.15;;;7.00;99.90;;;;;;4991357;28;20046;-51
2023/10/19 03:45:24;;;;;;;39.90;23.77;;;7.00;99.90;;;;;;4992502;28;20377;-51
2023/10/19 03:47:53;;;;;;;37.35;22.63;;;7.00;99.90;;;;;;4992728;28;20019;-49
2023/10/19 03:50:21;;;;;;;37.03;22.05;;;6.90;99.90;;;;;;4992485;28;20544;-50
2023/10/19 03:52:47;;;;;;;35.28;22.30;;;7.00;99.90;;;;;;4992351;28;20026;-48
2023/10/19 03:55:18;;;;;;;39.80;23.55;;;6.90;99.90;;;;;;4992166;28;20093;-50
2023/10/19 03:57:47;;;;;;;;;;;6.90;99.90;;;;;;4976222;28;20018;-51
2023/10/19 04:00:24;;;;;;;35.30;23.17;;;6.90;99.90;;;;;;4992265;28;20318;-50
2023/10/19 04:02:54;;;;;;;40.58;22.60;;;6.90;99.90;;;;;;4974553;28;20034;-50
2023/10/19 04:05:22;;;;;;;42.15;23.58;;;6.90;99.90;;;;;;4991734;28;20389;-51
2023/10/19 04:07:54;;;;;;;39.42;22.58;;;6.90;99.90;;;;;;4985987;28;20026;-51
2023/10/19 04:10:29;;;;;;;43.40;25.20;;;6.90;99.90;;;;;;4987829;28;20054;-48
2023/10/19 04:12:55;;;;;;;35.20;22.98;;;6.90;99.90;;;;;;4986648;28;20138;-50
2023/10/19 04:15:21;;;;;;;41.17;22.77;;;6.90;99.90;;;;;;4989811;28;20022;-51
2023/10/19 04:17:52;;;;;;;35.45;23.25;;;6.90;99.90;;;;;;4991588;28;20022;-49
2023/10/19 04:22:49;;;;;;;38.50;22.33;;;6.90;99.90;;;;;;4991361;28;20117;-50
2023/10/19 04:25:16;;;;;;;37.05;23.23;;;6.90;99.90;;;;;;4991270;28;20026;-51
2023/10/19 04:27:46;;;;;;;37.08;22.27;;;6.90;99.90;;;;;;4974207;28;20015;-51
2023/10/19 04:30:16;;;;;;;38.40;23.63;;;6.90;99.90;;;;;;4991310;28;20023;-51
2023/10/19 04:32:43;;;;;;;34.78;22.02;;;6.90;99.90;;;;;;4990418;28;20030;-51
2023/10/19 04:35:09;;;;;;;39.10;23.42;;;7.00;99.90;;;;;;4991250;28;20089;-51
2023/10/19 04:37:35;;;;;;;37.53;24.92;;;7.00;99.90;;;;;;4991455;28;20496;-52
2023/10/19 04:40:01;;;;;;;40.35;23.85;;;7.00;99.90;;;;;;4973846;28;20427;-50
2023/10/19 04:42:27;;;;;;;46.53;25.02;;;6.90;99.90;;;;;;4991216;28;20074;-49
2023/10/19 04:44:56;;;;;;;41.33;25.02;;;7.00;99.90;;;;;;4990697;28;20034;-50
2023/10/19 04:47:22;;;;;;;36.08;22.52;;;7.00;99.90;;;;;;4991200;28;20396;-51
2023/10/19 04:49:47;;;;;;;44.00;24.05;;;6.90;99.90;;;;;;4991211;28;20471;-51
2023/10/19 04:52:13;;;;;;;36.83;22.52;;;6.90;99.90;;;;;;4991283;28;20034;-48
2023/10/19 04:54:38;;;;;;;42.53;25.23;;;7.00;99.90;;;;;;4990556;28;20085;-51
2023/10/19 04:57:04;;;;;;;41.67;23.23;;;6.90;99.90;;;;;;4990893;28;20027;-53
2023/10/19 04:59:33;;;;;;;40.55;23.75;;;6.90;99.90;;;;;;4991213;28;20502;-51
2023/10/19 05:02:01;;;;;;;40.92;24.05;;;6.90;99.90;;;;;;4990839;28;20026;-51
2023/10/19 05:04:28;;;;;;;37.67;23.35;;;6.90;99.90;;;;;;4990374;28;20057;-51
2023/10/19 05:06:53;;;;;;;41.90;25.08;;;6.90;99.90;;;;;;4990704;28;20022;-48
2023/10/19 05:09:19;;;;;;;37.35;23.15;;;6.90;99.90;;;;;;4990970;28;20022;-51
2023/10/19 05:11:45;;;;;;;44.58;24.92;;;6.90;99.90;;;;;;4990844;28;20030;-51
2023/10/19 05:14:13;;;;;;;44.80;25.95;;;6.90;99.90;;;;;;4990725;28;20068;-48
2023/10/19 05:16:39;;;;;;;43.17;24.38;;;6.90;99.90;;;;;;4990549;28;20022;-49
2023/10/19 05:19:05;;;;;;;41.78;23.08;;;6.90;99.90;;;;;;4990524;28;20148;-48
2023/10/19 05:21:30;;;;;;;34.90;21.58;;;6.90;99.90;;;;;;4990393;28;20093;-47
2023/10/19 05:23:56;;;;;;;38.97;24.13;;;6.90;99.90;;;;;;4990600;28;20383;-51
2023/10/19 05:26:22;;;;;;;41.97;23.30;;;6.90;99.90;;;;;;4972292;28;20026;-47
2023/10/19 05:28:47;;;;;;;40.30;24.65;;;7.00;99.90;;;;;;4989970;28;20023;-47
2023/10/19 05:31:13;;;;;;;35.35;22.98;;;6.90;99.90;;;;;;4989763;28;20027;-48
2023/10/19 05:33:39;;;;;;;42.30;22.98;;;7.00;99.90;;;;;;4989828;28;20602;-49
2023/10/19 05:36:05;;;;;;;38.45;23.63;;;6.90;99.90;;;;;;4990254;28;20034;-50
2023/10/19 05:38:32;;;;;;;35.65;22.95;;;7.00;99.90;;;;;;4990091;28;20046;-50
2023/10/19 05:40:59;;;;;;;37.60;22.10;;;6.90;99.90;;;;;;4972598;28;20034;-47
2023/10/19 05:43:25;;;;;;;37.60;23.38;;;6.90;99.90;;;;;;4990159;28;20039;-48
2023/10/19 05:45:54;;;;;;;37.92;22.83;;;7.00;99.90;;;;;;4990100;28;20217;-48
2023/10/19 05:48:20;;;;;;;42.15;24.70;;;6.90;99.90;;;;;;4989975;28;20685;-49
2023/10/19 05:50:46;;;;;;;40.90;24.75;;;6.90;99.90;;;;;;4989862;28;20106;-48
2023/10/19 05:53:11;;;;;;;41.70;24.77;;;6.90;99.90;;;;;;4989420;28;20105;-50
2023/10/19 05:55:39;;;;;;;38.92;23.52;;;6.90;99.90;;;;;;4988994;28;20491;-47
2023/10/19 05:58:05;;;;;;;48.35;25.20;;;6.90;99.90;;;;;;4989626;28;20034;-49
2023/10/19 06:00:31;;;;;;;41.78;25.42;;;6.90;99.90;;;;;;4989230;28;20400;-49
2023/10/19 06:02:57;;;;;;;37.05;24.27;;;6.90;99.90;;;;;;4989672;28;20023;-48
2023/10/19 06:05:23;;;;;;;42.70;26.17;;;6.90;99.90;;;;;;4989224;28;20015;-50
2023/10/19 06:07:49;;;;;;;46.88;27.20;;;6.90;99.90;;;;;;4989750;28;20022;-51
2023/10/19 06:10:20;;;;;;;46.00;26.15;;;6.90;99.90;;;;;;4989877;28;20026;-48
2023/10/19 06:12:50;;;;;;;43.17;26.30;;;6.90;99.90;;;;;;4989821;28;20551;-48
2023/10/19 06:15:17;;;;;;;42.90;27.50;;;6.90;99.90;;;;;;4972202;28;20034;-50
2023/10/19 06:17:43;;;;;;;45.50;28.17;;;6.90;99.90;;;;;;4989955;28;20488;-47
2023/10/19 06:20:19;;;;;;;50.60;28.13;;;6.90;99.90;;;;;;4972448;28;20078;-49
2023/10/19 06:22:50;;;;;;;45.83;27.35;;;6.90;99.90;;;;;;4989780;28;20737;-47
2023/10/19 06:25:19;;;;;;;52.60;29.98;;;6.90;99.90;;;;;;4989793;28;20022;-51
2023/10/19 06:27:46;;;;;;;52.80;31.58;;;6.90;99.90;;;;;;4989680;28;20034;-47
2023/10/19 06:30:12;;;;;;;47.25;29.10;;;6.90;99.90;;;;;;4989949;28;20058;-50
2023/10/19 06:32:38;;;;;;;51.05;28.98;;;6.80;99.90;;;;;;4990102;28;20385;-51
2023/10/19 06:35:05;;;;;;;51.13;30.35;;;6.90;99.90;;;;;;4990038;28;20109;-50
2023/10/19 06:37:31;;;;;;;54.33;30.02;;;6.80;99.90;;;;;;4972055;28;20350;-51
2023/10/19 06:39:57;;;;;;;45.65;28.70;;;6.90;99.90;;;;;;4989888;28;20027;-48
2023/10/19 06:42:25;;;;;;;48.65;30.73;;;6.90;99.90;;;;;;4988731;28;20045;-49
2023/10/19 06:44:53;;;;;;;51.25;30.55;;;6.80;99.90;;;;;;4989239;28;20045;-47
2023/10/19 06:47:18;;;;;;;48.90;27.58;;;6.80;99.90;;;;;;4988498;28;20021;-49
2023/10/19 06:49:44;;;;;;;42.13;27.58;;;6.80;99.90;;;;;;4988977;28;20034;-50
2023/10/19 06:52:11;;;;;;;48.67;28.75;;;6.80;99.90;;;;;;4989363;28;20029;-48
2023/10/19 06:54:37;;;;;;;44.00;27.80;;;6.90;99.90;;;;;;4989434;28;20373;-49
2023/10/19 06:57:03;;;;;;;44.05;28.67;;;6.90;99.90;;;;;;4989318;28;20022;-47
2023/10/19 06:59:29;;;;;;;42.53;27.08;;;6.90;99.90;;;;;;4972270;28;20023;-50
2023/10/19 07:01:54;;;;;;;40.97;26.35;;;6.90;99.90;;;;;;4989061;28;20392;-48
2023/10/19 07:04:20;;;;;;;43.38;26.58;;;6.90;99.90;;;;;;4989137;28;20038;-47
2023/10/19 07:06:47;;;;;;;46.85;27.85;;;6.90;99.90;;;;;;4989109;28;20041;-50
2023/10/19 07:09:13;;;;;;;42.30;27.05;;;6.90;99.90;;;;;;4989517;28;20114;-47
2023/10/19 07:11:38;;;;;;;47.92;27.40;;;6.90;99.90;;;;;;4989539;28;20105;-51
2023/10/19 07:14:07;;;;;;;39.65;25.42;;;6.90;99.90;;;;;;4989336;28;20291;-47
2023/10/19 07:16:33;;;;;;;38.33;26.25;;;6.90;99.90;;;;;;4989230;28;20109;-47
2023/10/19 07:18:59;;;;;;;43.58;27.20;;;7.00;99.90;;;;;;4992452;28;20061;-48
2023/10/19 07:21:25;;;;;;;44.70;26.70;;;7.00;99.90;;;;;;4992872;28;20415;-48
2023/10/19 07:23:53;;;;;;;39.00;24.85;;;7.00;99.90;;;;;;4992934;28;20437;-47
2023/10/19 07:26:19;;;;;;;42.05;26.15;;;7.00;99.90;;;;;;4992606;28;20395;-46
2023/10/19 07:28:45;;;;;;;40.53;26.00;;;7.00;99.90;;;;;;4992858;28;20030;-48
2023/10/19 07:31:15;;;;;;;37.65;24.23;;;7.00;99.90;;;;;;4992609;28;20040;-49
2023/10/19 07:33:45;;;;;;;41.20;25.30;;;7.00;99.90;;;;;;4992437;28;20026;-47
2023/10/19 07:36:18;;;;;;;36.25;23.45;;;7.10;99.90;;;;;;4992700;28;20030;-48
2023/10/19 07:38:46;;;;;;;40.63;23.45;;;7.10;99.90;;;;;;4992522;28;20031;-47
2023/10/19 07:41:11;;;;;;;41.05;23.95;;;7.10;99.90;;;;;;4992347;28;20022;-48
2023/10/19 07:43:37;;;;;;;39.50;24.63;;;7.10;99.90;;;;;;4992346;28;20053;-47
2023/10/19 07:46:03;;;;;;;38.90;24.17;;;7.20;99.90;;;;;;4992158;28;20019;-49
2023/10/19 07:48:28;;;;;;;41.28;26.45;;;7.20;99.90;;;;;;4992565;28;20089;-48
2023/10/19 07:50:54;;;;;;;35.47;24.27;;;7.30;99.90;;;;;;4992251;28;20019;-50
2023/10/19 07:53:21;;;;;;;40.25;24.40;;;7.30;99.90;;;;;;4992189;28;20523;-49
2023/10/19 07:55:47;;;;;;;39.58;25.02;;;7.30;99.90;;;;;;4974952;28;20547;-50
2023/10/19 07:58:12;;;;;;;41.92;25.85;;;7.40;99.90;;;;;;4992062;28;20120;-49
2023/10/19 08:00:38;;;;;;;40.03;25.13;;;7.40;99.90;;;;;;4992206;28;20030;-49
2023/10/19 08:03:05;;;;;;;38.22;25.73;;;7.40;99.90;;;;;;4991918;28;20030;-50
2023/10/19 08:05:34;;;;;;;42.17;25.65;;;7.50;99.90;;;;;;4991735;28;20034;-47
2023/10/19 08:08:00;;;;;;;39.05;25.75;;;7.50;99.90;;;;;;4992202;28;20026;-49
2023/10/19 08:10:26;;;;;;;42.40;25.75;;;7.60;99.90;;;;;;4974262;28;20019;-49
2023/10/19 08:12:52;;;;;;;37.40;24.52;;;7.60;99.90;;;;;;4971873;28;20456;-48
2023/10/19 08:15:20;;;;;;;33.97;22.73;;;7.60;99.90;;;;;;4989306;28;20034;-51
2023/10/19 08:17:47;;;;;;;36.78;24.48;;;7.60;99.90;;;;;;4987975;28;20515;-47
2023/10/19 08:20:16;;;;;;;36.45;24.33;;;7.60;99.90;;;;;;4988684;28;20546;-48
2023/10/19 08:22:46;;;;;;;34.35;21.70;;;7.50;99.90;;;;;;4991663;28;20030;-50
2023/10/19 08:25:14;;;;;;;33.58;23.02;;;7.60;99.90;;;;;;4991705;28;20030;-50
2023/10/19 08:27:41;;;;;;;35.97;22.20;;;7.50;99.90;;;;;;4991385;28;20030;-48
2023/10/19 08:30:08;;;;;;;30.20;20.45;;;7.60;99.90;;;;;;4990756;28;20113;-48
2023/10/19 08:32:35;;;;;;;32.28;21.75;;;7.60;99.90;;;;;;4991359;28;20509;-49
2023/10/19 08:35:01;;;;;;;31.92;21.30;;;7.60;99.90;;;;;;4991281;28;20045;-46
2023/10/19 08:37:27;;;;;;;34.67;22.23;;;7.70;99.90;;;;;;4991170;28;20481;-48
2023/10/19 08:39:53;;;;;;;31.60;21.30;;;7.70;99.90;;;;;;4991552;28;20630;-51
2023/10/19 08:42:20;;;;;;;35.08;22.50;;;7.70;99.90;;;;;;4991581;28;20030;-49
2023/10/19 08:44:45;;;;;;;32.38;20.88;;;7.70;99.90;;;;;;4990904;28;20109;-48
2023/10/19 08:47:12;;;;;;;29.48;20.02;;;7.70;99.90;;;;;;4990506;28;20503;-48
2023/10/19 08:49:37;;;;;;;30.73;19.48;;;7.70;99.90;;;;;;4991187;28;20018;-50
2023/10/19 08:52:05;;;;;;;29.50;20.27;;;7.80;99.90;;;;;;4990984;28;20022;-48
2023/10/19 08:54:30;;;;;;;29.65;19.92;;;7.80;99.90;;;;;;4990721;28;20041;-48
2023/10/19 08:56:56;;;;;;;28.70;19.63;;;7.80;99.90;;;;;;4990548;28;20022;-51
2023/10/19 08:59:23;;;;;;;29.42;20.02;;;7.90;99.90;;;;;;4991084;28;20547;-49
2023/10/19 09:01:49;;;;;;;29.25;18.73;;;7.90;99.90;;;;;;4991139;28;20109;-48
2023/10/19 09:04:16;;;;;;;27.98;18.60;;;7.90;99.90;;;;;;4990823;28;20027;-50
2023/10/19 09:06:41;;;;;;;30.65;19.52;;;7.90;99.90;;;;;;4973215;28;20551;-48
2023/10/19 09:09:16;;;;;;;34.58;20.83;;;7.90;99.90;;;;;;4990579;28;20022;-47
2023/10/19 09:11:43;;;;;;;33.53;21.10;;;7.90;99.90;;;;;;4990905;28;20018;-47
2023/10/19 09:14:08;;;;;;;26.83;17.58;;;7.90;99.90;;;;;;4991130;28;20077;-49
2023/10/19 09:16:36;;;;;;;30.77;18.45;;;7.90;99.90;;;;;;4990347;28;20420;-50
2023/10/19 09:19:02;;;;;;;29.15;18.65;;;7.90;99.90;;;;;;4990658;28;20022;-47
2023/10/19 09:21:28;;;;;;;31.50;19.17;;;7.90;99.90;;;;;;4972773;28;20092;-47
2023/10/19 09:23:56;;;;;;;28.38;19.45;;;7.90;99.90;;;;;;4990517;28;20069;-50
2023/10/19 09:26:22;;;;;;;26.05;17.77;;;7.90;99.90;;;;;;4990470;28;20472;-49
2023/10/19 09:28:50;;;;;;;24.45;16.77;;;7.80;99.90;;;;;;4990714;28;20506;-48
2023/10/19 09:31:16;;;;;;;26.80;18.15;;;7.90;99.90;;;;;;4990406;28;20553;-49
2023/10/19 09:33:45;;;;;;;27.83;18.98;;;7.90;99.90;;;;;;4990227;28;20038;-49
2023/10/19 09:36:15;;;;;;;29.88;19.60;;;7.90;99.90;;;;;;4990117;28;20042;-47
2023/10/19 09:38:48;;;;;;;31.73;19.70;;;7.90;99.90;;;;;;4990012;28;20045;-50
2023/10/19 09:41:18;;;;;;;28.05;19.52;;;7.90;99.90;;;;;;4990023;28;20023;-48
2023/10/19 09:43:45;;;;;;;32.45;20.38;;;7.90;99.90;;;;;;4990165;28;20030;-47
2023/10/19 09:46:18;;;;;;;31.67;20.42;;;7.90;99.90;;;;;;4990447;28;20381;-48
2023/10/19 09:48:48;;;;;;;28.02;19.45;;;7.90;99.90;;;;;;4990234;28;20105;-49
2023/10/19 09:51:16;;;;;;;37.53;21.20;;;7.90;99.90;;;;;;4990665;28;20030;-47
2023/10/19 09:53:44;;;;;;;30.42;19.35;;;7.90;99.90;;;;;;4990021;28;20518;-50
2023/10/19 09:56:18;;;;;;;28.95;19.65;;;8.00;99.90;;;;;;4972348;28;20500;-49
2023/10/19 09:58:50;;;;;;;33.35;20.25;;;8.00;99.90;;;;;;4986648;28;20392;-46
2023/10/19 10:01:18;;;;;;;34.55;22.95;;;8.00;99.90;;;;;;4989222;28;20030;-48
2023/10/19 10:03:52;;;;;;;40.25;25.00;;;8.00;99.90;;;;;;4981328;28;20105;-49
2023/10/19 10:06:50;;;;;;;40.75;23.23;;;8.00;99.90;;;;;;4983554;28;20014;-51
2023/10/19 10:09:21;;;;;;;32.45;20.50;;;8.00;99.90;;;;;;4983569;28;20101;-48
2023/10/19 10:11:49;;;;;;;45.17;26.25;;;8.00;99.90;;;;;;4981191;28;20419;-46
2023/10/19 10:14:25;;;;;;;39.53;25.33;;;8.00;99.90;;;;;;4985785;28;20254;-49
2023/10/19 10:17:01;;;;;;;39.22;25.20;;;8.00;99.90;;;;;;4984987;28;20050;-47
2023/10/19 10:19:26;;;;;;;43.30;25.52;;;8.00;99.90;;;;;;4987522;28;20077;-47
2023/10/19 10:22:11;;;;;;;36.22;23.30;;;8.00;99.90;;;;;;4982133;28;20026;-50
2023/10/19 10:24:43;;;;;;;46.40;26.52;;;8.00;99.90;;;;;;4984000;28;20332;-49
2023/10/19 10:27:10;;;;;;;47.42;28.65;;;8.10;99.90;;;;;;4966458;28;20551;-51
2023/10/19 10:29:36;;;;;;;44.85;26.80;;;8.10;99.90;;;;;;4984094;28;20431;-50
2023/10/19 10:32:05;;;;;;;42.30;26.10;;;8.20;99.90;;;;;;4982293;28;20023;-49
2023/10/19 10:34:33;;;;;;;38.83;24.77;;;8.20;99.90;;;;;;4989553;28;20125;-48
2023/10/19 10:37:03;;;;;;;39.38;24.67;;;8.20;99.90;;;;;;4983780;28;20015;-48
2023/10/19 10:39:30;;;;;;;39.15;24.65;;;8.10;99.90;;;;;;4982566;28;20022;-48
2023/10/19 10:42:00;;;;;;;36.83;24.65;;;8.10;99.90;;;;;;4982090;28;20038;-47
2023/10/19 10:44:40;;;;;;;40.83;24.15;;;8.10;99.90;;;;;;4982125;28;20026;-47
2023/10/19 10:47:24;;;;;;;42.63;25.15;;;8.10;99.90;;;;;;4981971;28;20516;-49
2023/10/19 10:50:09;;;;;;;35.22;22.42;;;8.10;99.90;;;;;;4984021;28;20022;-51
2023/10/19 10:52:36;;;;;;;34.22;22.00;;;8.20;99.90;;;;;;4982427;28;20153;-47
2023/10/19 10:55:12;;;;;;;42.10;25.90;;;8.20;99.90;;;;;;4988128;28;20038;-48
2023/10/19 10:57:38;;;;;;;39.50;25.27;;;8.30;99.90;;;;;;4987893;28;20558;-48
2023/10/19 11:00:25;;;;;;;39.22;25.08;;;8.30;99.90;;;;;;4993427;28;20121;-48
2023/10/19 11:03:03;;;;;;;35.92;23.65;;;8.50;99.90;;;;;;4987399;28;20518;-50
2023/10/19 11:05:29;;;;;;;37.30;24.35;;;8.60;99.90;;;;;;4992938;28;20113;-48
2023/10/19 11:08:20;;;;;;;40.58;24.77;;;8.60;99.90;;;;;;4993195;28;20563;-49
2023/10/19 11:10:46;;;;;;;35.15;23.45;;;8.70;99.90;;;;;;4993112;28;20027;-46
2023/10/19 11:13:23;;;;;;;36.10;24.23;;;8.70;99.90;;;;;;4992843;28;20054;-49
2023/10/19 11:15:53;;;;;;;36.20;23.67;;;8.80;99.90;;;;;;4992681;28;20083;-47
2023/10/19 11:18:45;;;;;;;35.22;24.55;;;8.80;99.90;;;;;;4986890;28;20392;-48
2023/10/19 11:21:12;;;;;;;41.53;24.98;;;8.80;99.90;;;;;;4988320;28;20034;-48
2023/10/19 11:23:43;;;;;;;37.60;23.98;;;8.70;99.90;;;;;;4986276;28;20030;-48
2023/10/19 11:26:14;;;;;;;39.78;25.25;;;8.60;99.90;;;;;;4973487;28;20035;-49
2023/10/19 11:28:44;;;;;;;;;;;8.50;99.90;;;;;;4991814;28;20069;-48
2023/10/19 11:31:15;;;;;;;35.78;25.02;;;8.50;99.90;;;;;;4992316;28;19905;-46
2023/10/19 11:33:45;;;;;;;38.92;24.80;;;8.50;99.90;;;;;;4991202;28;20037;-50
2023/10/19 11:36:12;;;;;;;37.08;23.90;;;8.50;99.90;;;;;;4990737;28;20034;-47
2023/10/19 11:38:42;;;;;;;39.40;24.95;;;8.40;99.90;;;;;;4991227;28;20031;-47
2023/10/19 11:41:08;;;;;;;37.75;23.70;;;8.40;99.90;;;;;;4991021;28;20023;-47
2023/10/19 11:43:35;;;;;;;38.75;24.70;;;8.40;99.90;;;;;;4990466;28;20038;-50
2023/10/19 11:46:01;;;;;;;35.58;24.13;;;8.40;99.90;;;;;;4990666;28;20441;-47
2023/10/19 11:48:26;;;;;;;40.28;25.38;;;8.40;99.90;;;;;;4992423;28;20061;-46
2023/10/19 11:50:53;;;;;;;41.80;25.52;;;8.30;99.90;;;;;;4992313;28;20022;-47
2023/10/19 11:53:18;;;;;;;38.17;24.50;;;8.30;99.90;;;;;;4974498;28;20027;-47
2023/10/19 11:55:44;;;;;;;44.20;26.42;;;8.30;99.90;;;;;;4991977;28;20030;-49
2023/10/19 11:58:13;;;;;;;41.55;26.00;;;8.30;99.90;;;;;;4992352;28;20041;-49
2023/10/19 12:00:39;;;;;;;40.80;25.92;;;8.40;99.90;;;;;;4992297;28;20030;-47
2023/10/19 12:03:06;;;;;;;40.92;26.52;;;8.40;99.90;;;;;;4974522;28;20095;-49
2023/10/19 12:05:31;;;;;;;40.92;26.20;;;8.40;99.90;;;;;;4990647;28;20030;-50
2023/10/19 12:07:57;;;;;;;40.55;27.52;;;8.50;99.90;;;;;;4991851;28;20033;-49
2023/10/19 12:10:32;;;;;;;41.70;26.50;;;8.60;99.90;;;;;;4992248;28;20022;-46
2023/10/19 12:12:58;;;;;;;48.28;29.35;;;8.60;99.90;;;;;;4991823;28;20026;-47
2023/10/19 12:15:25;;;;;;;44.47;27.98;;;8.60;99.90;;;;;;4991816;28;20260;-50
2023/10/19 12:17:51;;;;;;;40.42;27.70;;;8.60;99.90;;;;;;4992396;28;20394;-50
2023/10/19 12:20:16;;;;;;;45.75;27.98;;;8.60;99.90;;;;;;4991807;28;20066;-49
2023/10/19 12:22:42;;;;;;;44.55;27.80;;;8.50;99.90;;;;;;4990111;28;20029;-49
2023/10/19 12:25:08;;;;;;;38.97;26.20;;;8.50;99.90;;;;;;4972386;28;20023;-49
2023/10/19 12:27:33;;;;;;;47.28;28.25;;;8.50;99.90;;;;;;4989726;28;20112;-47
2023/10/19 12:29:59;;;;;;;47.17;29.17;;;8.50;99.90;;;;;;4989996;28;20033;-49
2023/10/19 12:32:26;;;;;;;46.35;29.17;;;8.50;99.90;;;;;;4989812;28;20062;-46
2023/10/19 12:34:57;;;;;;;43.58;26.98;;;8.50;99.90;;;;;;4989669;28;20029;-49
2023/10/19 12:37:24;;;;;;;45.60;27.20;;;8.50;99.90;;;;;;4991626;28;20025;-49
2023/10/19 12:39:49;;;;;;;42.13;26.42;;;8.50;99.90;;;;;;4991033;28;20014;-46
2023/10/19 12:42:16;;;;;;;47.30;29.95;;;8.50;99.90;;;;;;4991437;28;20041;-47
2023/10/19 12:44:41;;;;;;;50.28;29.98;;;8.50;99.90;;;;;;4991042;28;20034;-48
2023/10/19 12:47:14;;;;;;;50.17;29.17;;;8.50;99.90;;;;;;4991367;28;20018;-48
2023/10/19 12:49:40;;;;;;;50.67;29.98;;;8.50;99.90;;;;;;4958419;28;20023;-47
2023/10/19 12:52:10;;;;;;;52.17;29.98;;;8.50;99.90;;;;;;4973593;28;20321;-47
2023/10/19 12:54:36;;;;;;;43.85;27.45;;;8.50;99.90;;;;;;4990978;28;20498;-47
2023/10/19 12:57:09;;;;;;;51.33;29.42;;;8.40;99.90;;;;;;4972246;28;20034;-47
2023/10/19 12:59:39;;;;;;;49.10;28.30;;;8.50;99.90;;;;;;4990943;28;20042;-48
2023/10/19 13:02:08;;;;;;;51.05;29.58;;;8.40;99.90;;;;;;4991001;28;20062;-48